Portada
METAR-TAF:

METAR-TAF

Aeroports :

Alderney,

latitud: 49-43N, longitud: 002-12W, altitud: 71 m

Observació

L'informe es va fer fa 34 minuts, a les 16:20 UTC
Vent 12 kt del Sud-Oest
Temperatura 11°C
Humitat 76%
Pressió 1016 hPa
Visibilitat 10 km o més
Escasses núvols a una alçada de 1700 ft
Cel ennuvolat a una alçada de 2600 ft

METAR: EGJA 071620Z 23012KT 9999 FEW017 BKN026 11/07 Q1016

Hora: 16:54 (16:54 UTC)

Pronòstic

L'informe es va fer fa 2 hores i 50 minuts, a les 14:04 UTC
Pronòstic vàlid del 07 a les 15 UTC al 08 a les 00 UTC
Vent 13 kt del Sud-Oest
Visibilitat 10 km o més
Núvols disperses a una alçada de 1500 ft
Núvols disperses a una alçada de 3000 ft
Probabilitat 40% :
Temporalment
l' 07 a les 15 UTC al 08 a les 00 UTC
Cel ennuvolat a una alçada de 1400 ft
Evolucionant progressivament
l' 07 a les 21 UTC al 07 a les 23 UTC
Vent 24 kt del Sud-Oest amb ràfegues de 35 kt

TAF: EGJA 071404Z 0715/0800 23013KT 9999 SCT015 SCT030 PROB40 TEMPO 0715/0800 BKN014 BECMG 0721/0723 22024G35KT

Observacions i pronòstics meteorològics de més de 4000 aeroports (METAR i TAF).

Les estacions disponibles són els punts grocs i vermells al mapa.

Posi el ratolí al punt desitjat per veure el nom de l'estació.

Feu clic per veure les observacions i els pronòstics meteorològics.

Per canviar el mapa: feu clic els botons verds amb una creu de color negre per apropar; al botó verd amb un guió per allunyar la imatge; o en les fletxes verdes per a mapes adjacents.


METAR-TAF: